sensor_id;sensor_type;location;lat;lon;timestamp;P1;durP1;ratioP1;P2;durP2;ratioP2
3547;SDS011;1788;49.400;11.092;2023-05-10T00:01:20;8.20;;;6.07;;
3547;SDS011;1788;49.400;11.092;2023-05-10T00:03:46;7.20;;;5.90;;
3547;SDS011;1788;49.400;11.092;2023-05-10T00:06:13;8.67;;;5.33;;
3547;SDS011;1788;49.400;11.092;2023-05-10T00:08:40;6.80;;;6.03;;
3547;SDS011;1788;49.400;11.092;2023-05-10T00:11:08;6.70;;;5.80;;
3547;SDS011;1788;49.400;11.092;2023-05-10T00:13:34;7.80;;;6.13;;
3547;SDS011;1788;49.400;11.092;2023-05-10T00:16:03;9.50;;;5.70;;
3547;SDS011;1788;49.400;11.092;2023-05-10T00:18:29;9.73;;;6.10;;
3547;SDS011;1788;49.400;11.092;2023-05-10T00:20:57;5.97;;;5.07;;
3547;SDS011;1788;49.400;11.092;2023-05-10T00:23:23;9.40;;;6.47;;
3547;SDS011;1788;49.400;11.092;2023-05-10T00:25:50;7.97;;;5.93;;
3547;SDS011;1788;49.400;11.092;2023-05-10T00:28:17;6.43;;;5.60;;
3547;SDS011;1788;49.400;11.092;2023-05-10T00:30:44;8.17;;;6.30;;
3547;SDS011;1788;49.400;11.092;2023-05-10T00:33:12;7.03;;;6.40;;
3547;SDS011;1788;49.400;11.092;2023-05-10T00:35:39;9.13;;;5.97;;
3547;SDS011;1788;49.400;11.092;2023-05-10T00:38:07;7.13;;;6.10;;
3547;SDS011;1788;49.400;11.092;2023-05-10T00:40:35;10.07;;;6.43;;
3547;SDS011;1788;49.400;11.092;2023-05-10T00:43:01;7.93;;;6.13;;
3547;SDS011;1788;49.400;11.092;2023-05-10T00:45:27;10.90;;;7.10;;
3547;SDS011;1788;49.400;11.092;2023-05-10T00:47:55;7.87;;;6.50;;
3547;SDS011;1788;49.400;11.092;2023-05-10T00:50:22;10.47;;;6.90;;
3547;SDS011;1788;49.400;11.092;2023-05-10T00:52:48;9.73;;;7.17;;
3547;SDS011;1788;49.400;11.092;2023-05-10T00:55:15;10.27;;;7.00;;
3547;SDS011;1788;49.400;11.092;2023-05-10T00:57:44;11.63;;;7.13;;
3547;SDS011;1788;49.400;11.092;2023-05-10T01:00:11;9.57;;;7.03;;
3547;SDS011;1788;49.400;11.092;2023-05-10T01:02:37;10.20;;;7.20;;
3547;SDS011;1788;49.400;11.092;2023-05-10T01:05:05;7.37;;;6.40;;
3547;SDS011;1788;49.400;11.092;2023-05-10T01:07:31;10.60;;;7.03;;
3547;SDS011;1788;49.400;11.092;2023-05-10T01:09:58;11.30;;;7.40;;
3547;SDS011;1788;49.400;11.092;2023-05-10T01:12:25;8.73;;;7.10;;
3547;SDS011;1788;49.400;11.092;2023-05-10T01:14:51;12.00;;;7.83;;
3547;SDS011;1788;49.400;11.092;2023-05-10T01:17:18;11.27;;;6.93;;
3547;SDS011;1788;49.400;11.092;2023-05-10T01:19:45;10.47;;;7.70;;
3547;SDS011;1788;49.400;11.092;2023-05-10T01:24:42;11.73;;;6.90;;
3547;SDS011;1788;49.400;11.092;2023-05-10T01:34:27;10.20;;;7.27;;
3547;SDS011;1788;49.400;11.092;2023-05-10T01:39:24;8.97;;;7.27;;
3547;SDS011;1788;49.400;11.092;2023-05-10T01:44:17;11.13;;;7.13;;
3547;SDS011;1788;49.400;11.092;2023-05-10T01:46:42;8.27;;;7.07;;
3547;SDS011;1788;49.400;11.092;2023-05-10T01:49:09;9.43;;;7.27;;
3547;SDS011;1788;49.400;11.092;2023-05-10T01:51:38;11.90;;;7.70;;
3547;SDS011;1788;49.400;11.092;2023-05-10T01:54:03;10.70;;;7.43;;
3547;SDS011;1788;49.400;11.092;2023-05-10T01:56:30;10.50;;;7.93;;
3547;SDS011;1788;49.400;11.092;2023-05-10T01:58:56;10.20;;;7.07;;
3547;SDS011;1788;49.400;11.092;2023-05-10T02:01:24;12.67;;;7.80;;
3547;SDS011;1788;49.400;11.092;2023-05-10T02:03:50;11.03;;;7.93;;
3547;SDS011;1788;49.400;11.092;2023-05-10T02:06:18;7.67;;;7.07;;
3547;SDS011;1788;49.400;11.092;2023-05-10T02:08:44;9.87;;;7.43;;
3547;SDS011;1788;49.400;11.092;2023-05-10T02:11:11;11.60;;;7.47;;
3547;SDS011;1788;49.400;11.092;2023-05-10T02:13:37;9.13;;;6.50;;
3547;SDS011;1788;49.400;11.092;2023-05-10T02:16:04;9.23;;;7.50;;
3547;SDS011;1788;49.400;11.092;2023-05-10T02:18:31;11.33;;;7.73;;
3547;SDS011;1788;49.400;11.092;2023-05-10T02:20:58;7.43;;;6.57;;
3547;SDS011;1788;49.400;11.092;2023-05-10T02:23:25;11.13;;;7.23;;
3547;SDS011;1788;49.400;11.092;2023-05-10T02:25:52;11.37;;;6.70;;
3547;SDS011;1788;49.400;11.092;2023-05-10T02:28:18;11.07;;;6.60;;
3547;SDS011;1788;49.400;11.092;2023-05-10T02:30:45;9.40;;;6.70;;
3547;SDS011;1788;49.400;11.092;2023-05-10T02:33:12;10.07;;;7.20;;
3547;SDS011;1788;49.400;11.092;2023-05-10T02:35:38;11.53;;;6.53;;
3547;SDS011;1788;49.400;11.092;2023-05-10T02:38:05;9.63;;;6.37;;
3547;SDS011;1788;49.400;11.092;2023-05-10T02:40:31;10.73;;;6.53;;
3547;SDS011;1788;49.400;11.092;2023-05-10T02:42:58;10.10;;;7.13;;
3547;SDS011;1788;49.400;11.092;2023-05-10T02:45:27;7.97;;;6.13;;
3547;SDS011;1788;49.400;11.092;2023-05-10T02:47:52;9.07;;;6.47;;
3547;SDS011;1788;49.400;11.092;2023-05-10T02:50:19;10.43;;;6.97;;
3547;SDS011;1788;49.400;11.092;2023-05-10T02:52:46;8.70;;;6.67;;
3547;SDS011;1788;49.400;11.092;2023-05-10T02:55:12;9.30;;;6.63;;
3547;SDS011;1788;49.400;11.092;2023-05-10T03:00:06;2.87;;;2.70;;
3547;SDS011;1788;49.400;11.092;2023-05-10T03:02:33;3.60;;;2.83;;
3547;SDS011;1788;49.400;11.092;2023-05-10T03:05:00;3.03;;;2.20;;
3547;SDS011;1788;49.400;11.092;2023-05-10T03:07:27;2.83;;;2.30;;
3547;SDS011;1788;49.400;11.092;2023-05-10T03:09:54;2.70;;;2.37;;
3547;SDS011;1788;49.400;11.092;2023-05-10T03:14:52;2.23;;;2.00;;
3547;SDS011;1788;49.400;11.092;2023-05-10T03:22:10;2.40;;;2.20;;
3547;SDS011;1788;49.400;11.092;2023-05-10T03:24:37;1.90;;;1.60;;
3547;SDS011;1788;49.400;11.092;2023-05-10T03:27:05;1.90;;;1.30;;
3547;SDS011;1788;49.400;11.092;2023-05-10T03:29:32;2.50;;;1.80;;
3547;SDS011;1788;49.400;11.092;2023-05-10T03:31:59;2.07;;;1.33;;
3547;SDS011;1788;49.400;11.092;2023-05-10T03:34:26;4.33;;;1.57;;
3547;SDS011;1788;49.400;11.092;2023-05-10T03:36:53;1.17;;;1.10;;
3547;SDS011;1788;49.400;11.092;2023-05-10T03:39:19;1.37;;;1.27;;
3547;SDS011;1788;49.400;11.092;2023-05-10T03:41:46;1.40;;;1.37;;
3547;SDS011;1788;49.400;11.092;2023-05-10T03:44:13;1.60;;;1.50;;
3547;SDS011;1788;49.400;11.092;2023-05-10T03:46:41;1.37;;;1.13;;
3547;SDS011;1788;49.400;11.092;2023-05-10T03:49:08;1.20;;;0.83;;
3547;SDS011;1788;49.400;11.092;2023-05-10T03:51:34;0.97;;;0.87;;
3547;SDS011;1788;49.400;11.092;2023-05-10T03:54:01;1.10;;;1.00;;
3547;SDS011;1788;49.400;11.092;2023-05-10T03:56:27;1.17;;;1.07;;
3547;SDS011;1788;49.400;11.092;2023-05-10T03:58:55;0.80;;;0.70;;
3547;SDS011;1788;49.400;11.092;2023-05-10T04:01:21;1.40;;;1.30;;
3547;SDS011;1788;49.400;11.092;2023-05-10T04:03:49;1.17;;;1.00;;
3547;SDS011;1788;49.400;11.092;2023-05-10T04:06:15;0.83;;;0.80;;
3547;SDS011;1788;49.400;11.092;2023-05-10T04:08:42;1.10;;;0.93;;
3547;SDS011;1788;49.400;11.092;2023-05-10T04:11:09;1.57;;;1.13;;
3547;SDS011;1788;49.400;11.092;2023-05-10T04:13:36;1.17;;;1.07;;
3547;SDS011;1788;49.400;11.092;2023-05-10T04:16:02;1.07;;;1.00;;
3547;SDS011;1788;49.400;11.092;2023-05-10T04:18:30;1.30;;;1.20;;
3547;SDS011;1788;49.400;11.092;2023-05-10T04:20:56;1.20;;;1.10;;
3547;SDS011;1788;49.400;11.092;2023-05-10T04:23:23;1.17;;;1.10;;
3547;SDS011;1788;49.400;11.092;2023-05-10T04:25:49;0.70;;;0.60;;
3547;SDS011;1788;49.400;11.092;2023-05-10T04:28:16;1.20;;;1.10;;
3547;SDS011;1788;49.400;11.092;2023-05-10T04:30:43;0.97;;;0.90;;
3547;SDS011;1788;49.400;11.092;2023-05-10T04:33:10;1.13;;;0.93;;
3547;SDS011;1788;49.400;11.092;2023-05-10T04:35:37;0.77;;;0.67;;
3547;SDS011;1788;49.400;11.092;2023-05-10T04:38:04;0.80;;;0.73;;
3547;SDS011;1788;49.400;11.092;2023-05-10T04:40:31;0.70;;;0.60;;
3547;SDS011;1788;49.400;11.092;2023-05-10T04:42:58;0.90;;;0.70;;
3547;SDS011;1788;49.400;11.092;2023-05-10T04:45:25;0.97;;;0.87;;
3547;SDS011;1788;49.400;11.092;2023-05-10T04:47:51;0.80;;;0.70;;
3547;SDS011;1788;49.400;11.092;2023-05-10T04:50:19;0.83;;;0.73;;
3547;SDS011;1788;49.400;11.092;2023-05-10T04:52:46;0.90;;;0.80;;
3547;SDS011;1788;49.400;11.092;2023-05-10T04:55:13;0.67;;;0.60;;
3547;SDS011;1788;49.400;11.092;2023-05-10T04:57:40;2.20;;;1.27;;
3547;SDS011;1788;49.400;11.092;2023-05-10T05:00:07;0.90;;;0.80;;
3547;SDS011;1788;49.400;11.092;2023-05-10T05:02:34;1.20;;;1.10;;
3547;SDS011;1788;49.400;11.092;2023-05-10T05:05:01;1.23;;;1.13;;
3547;SDS011;1788;49.400;11.092;2023-05-10T05:07:28;0.83;;;0.77;;
3547;SDS011;1788;49.400;11.092;2023-05-10T05:09:56;1.03;;;0.80;;
3547;SDS011;1788;49.400;11.092;2023-05-10T05:12:22;0.93;;;0.83;;
3547;SDS011;1788;49.400;11.092;2023-05-10T05:14:49;0.70;;;0.60;;
3547;SDS011;1788;49.400;11.092;2023-05-10T05:17:16;0.97;;;0.80;;
3547;SDS011;1788;49.400;11.092;2023-05-10T05:19:42;0.87;;;0.77;;
3547;SDS011;1788;49.400;11.092;2023-05-10T05:22:10;0.70;;;0.60;;
3547;SDS011;1788;49.400;11.092;2023-05-10T05:24:36;1.03;;;0.80;;
3547;SDS011;1788;49.400;11.092;2023-05-10T05:27:04;0.80;;;0.70;;
3547;SDS011;1788;49.400;11.092;2023-05-10T05:29:32;0.87;;;0.77;;
3547;SDS011;1788;49.400;11.092;2023-05-10T05:31:58;0.80;;;0.70;;
3547;SDS011;1788;49.400;11.092;2023-05-10T05:34:26;1.70;;;0.93;;
3547;SDS011;1788;49.400;11.092;2023-05-10T05:36:53;1.10;;;1.00;;
3547;SDS011;1788;49.400;11.092;2023-05-10T05:39:20;3.53;;;1.13;;
3547;SDS011;1788;49.400;11.092;2023-05-10T05:41:47;1.10;;;1.00;;
3547;SDS011;1788;49.400;11.092;2023-05-10T05:44:14;0.97;;;0.87;;
3547;SDS011;1788;49.400;11.092;2023-05-10T05:46:41;1.17;;;1.07;;
3547;SDS011;1788;49.400;11.092;2023-05-10T05:49:08;0.90;;;0.80;;
3547;SDS011;1788;49.400;11.092;2023-05-10T05:51:35;1.37;;;1.03;;
3547;SDS011;1788;49.400;11.092;2023-05-10T05:54:02;0.90;;;0.80;;
3547;SDS011;1788;49.400;11.092;2023-05-10T05:56:29;1.00;;;0.90;;
3547;SDS011;1788;49.400;11.092;2023-05-10T05:58:55;1.00;;;0.90;;
3547;SDS011;1788;49.400;11.092;2023-05-10T06:01:22;0.90;;;0.80;;
3547;SDS011;1788;49.400;11.092;2023-05-10T06:03:48;1.23;;;1.13;;
3547;SDS011;1788;49.400;11.092;2023-05-10T06:06:16;1.00;;;0.90;;
3547;SDS011;1788;49.400;11.092;2023-05-10T06:08:42;1.27;;;1.20;;
3547;SDS011;1788;49.400;11.092;2023-05-10T06:11:10;1.70;;;1.40;;
3547;SDS011;1788;49.400;11.092;2023-05-10T06:13:37;1.43;;;1.33;;
3547;SDS011;1788;49.400;11.092;2023-05-10T06:16:03;1.03;;;0.93;;
3547;SDS011;1788;49.400;11.092;2023-05-10T06:18:30;2.30;;;1.17;;
3547;SDS011;1788;49.400;11.092;2023-05-10T06:20:57;1.37;;;1.27;;
3547;SDS011;1788;49.400;11.092;2023-05-10T06:23:23;1.20;;;1.10;;
3547;SDS011;1788;49.400;11.092;2023-05-10T06:25:50;1.40;;;1.30;;
3547;SDS011;1788;49.400;11.092;2023-05-10T06:28:17;1.47;;;1.30;;
3547;SDS011;1788;49.400;11.092;2023-05-10T06:30:43;1.40;;;1.30;;
3547;SDS011;1788;49.400;11.092;2023-05-10T06:33:10;1.43;;;1.30;;
3547;SDS011;1788;49.400;11.092;2023-05-10T06:35:37;1.40;;;1.30;;
3547;SDS011;1788;49.400;11.092;2023-05-10T06:38:04;1.97;;;1.50;;
3547;SDS011;1788;49.400;11.092;2023-05-10T06:40:31;1.73;;;1.60;;
3547;SDS011;1788;49.400;11.092;2023-05-10T06:42:58;1.40;;;1.30;;
3547;SDS011;1788;49.400;11.092;2023-05-10T06:45:25;1.90;;;1.87;;
3547;SDS011;1788;49.400;11.092;2023-05-10T06:47:51;1.60;;;1.50;;
3547;SDS011;1788;49.400;11.092;2023-05-10T06:50:18;1.57;;;1.47;;
3547;SDS011;1788;49.400;11.092;2023-05-10T06:52:45;1.60;;;1.50;;
3547;SDS011;1788;49.400;11.092;2023-05-10T06:55:12;1.33;;;1.30;;
3547;SDS011;1788;49.400;11.092;2023-05-10T06:57:38;1.53;;;1.43;;
3547;SDS011;1788;49.400;11.092;2023-05-10T07:00:05;1.50;;;1.40;;
3547;SDS011;1788;49.400;11.092;2023-05-10T07:02:32;1.30;;;1.20;;
3547;SDS011;1788;49.400;11.092;2023-05-10T07:04:58;1.47;;;1.37;;
3547;SDS011;1788;49.400;11.092;2023-05-10T07:07:25;1.40;;;1.20;;
3547;SDS011;1788;49.400;11.092;2023-05-10T07:09:52;1.50;;;1.40;;
3547;SDS011;1788;49.400;11.092;2023-05-10T07:12:19;1.53;;;1.30;;
3547;SDS011;1788;49.400;11.092;2023-05-10T07:14:47;1.40;;;1.30;;
3547;SDS011;1788;49.400;11.092;2023-05-10T07:17:13;1.43;;;1.33;;
3547;SDS011;1788;49.400;11.092;2023-05-10T07:19:40;1.63;;;1.43;;
3547;SDS011;1788;49.400;11.092;2023-05-10T07:22:07;1.37;;;1.27;;
3547;SDS011;1788;49.400;11.092;2023-05-10T07:24:34;1.53;;;1.43;;
3547;SDS011;1788;49.400;11.092;2023-05-10T07:27:01;1.30;;;1.20;;
3547;SDS011;1788;49.400;11.092;2023-05-10T07:29:27;1.40;;;1.30;;
3547;SDS011;1788;49.400;11.092;2023-05-10T07:31:54;1.40;;;1.27;;
3547;SDS011;1788;49.400;11.092;2023-05-10T07:34:21;1.10;;;1.00;;
3547;SDS011;1788;49.400;11.092;2023-05-10T07:36:48;1.93;;;1.40;;
3547;SDS011;1788;49.400;11.092;2023-05-10T07:39:15;1.80;;;1.60;;
3547;SDS011;1788;49.400;11.092;2023-05-10T07:41:42;1.40;;;1.30;;
3547;SDS011;1788;49.400;11.092;2023-05-10T07:44:08;1.80;;;1.70;;
3547;SDS011;1788;49.400;11.092;2023-05-10T07:46:35;1.43;;;1.43;;
3547;SDS011;1788;49.400;11.092;2023-05-10T07:49:02;1.47;;;1.37;;
3547;SDS011;1788;49.400;11.092;2023-05-10T07:51:28;1.60;;;1.50;;
3547;SDS011;1788;49.400;11.092;2023-05-10T07:53:56;1.53;;;1.43;;
3547;SDS011;1788;49.400;11.092;2023-05-10T07:58:49;2.30;;;2.10;;
3547;SDS011;1788;49.400;11.092;2023-05-10T08:01:16;1.67;;;1.60;;
3547;SDS011;1788;49.400;11.092;2023-05-10T08:03:43;1.73;;;1.63;;
3547;SDS011;1788;49.400;11.092;2023-05-10T08:06:11;1.50;;;1.40;;
3547;SDS011;1788;49.400;11.092;2023-05-10T08:08:37;1.67;;;1.57;;
3547;SDS011;1788;49.400;11.092;2023-05-10T08:11:05;1.73;;;1.63;;
3547;SDS011;1788;49.400;11.092;2023-05-10T08:13:31;3.30;;;1.87;;
3547;SDS011;1788;49.400;11.092;2023-05-10T08:15:59;1.83;;;1.73;;
3547;SDS011;1788;49.400;11.092;2023-05-10T08:18:25;1.60;;;1.50;;
3547;SDS011;1788;49.400;11.092;2023-05-10T08:20:52;2.17;;;1.90;;
3547;SDS011;1788;49.400;11.092;2023-05-10T08:23:18;1.93;;;1.73;;
3547;SDS011;1788;49.400;11.092;2023-05-10T08:25:45;1.87;;;1.50;;
3547;SDS011;1788;49.400;11.092;2023-05-10T08:28:12;1.70;;;1.60;;
3547;SDS011;1788;49.400;11.092;2023-05-10T08:30:39;2.07;;;1.93;;
3547;SDS011;1788;49.400;11.092;2023-05-10T08:33:06;1.60;;;1.50;;
3547;SDS011;1788;49.400;11.092;2023-05-10T08:35:33;2.03;;;1.70;;
3547;SDS011;1788;49.400;11.092;2023-05-10T08:38:00;2.20;;;2.10;;
3547;SDS011;1788;49.400;11.092;2023-05-10T08:40:26;1.80;;;1.73;;
3547;SDS011;1788;49.400;11.092;2023-05-10T08:45:19;2.03;;;1.90;;
3547;SDS011;1788;49.400;11.092;2023-05-10T08:47:47;1.50;;;1.40;;
3547;SDS011;1788;49.400;11.092;2023-05-10T08:50:14;2.30;;;2.10;;
3547;SDS011;1788;49.400;11.092;2023-05-10T08:52:41;2.27;;;2.07;;
3547;SDS011;1788;49.400;11.092;2023-05-10T08:55:08;2.00;;;1.60;;
3547;SDS011;1788;49.400;11.092;2023-05-10T08:57:35;2.17;;;1.63;;
3547;SDS011;1788;49.400;11.092;2023-05-10T09:00:01;2.00;;;1.83;;
3547;SDS011;1788;49.400;11.092;2023-05-10T09:02:27;1.97;;;1.70;;
3547;SDS011;1788;49.400;11.092;2023-05-10T09:04:54;2.47;;;1.80;;
3547;SDS011;1788;49.400;11.092;2023-05-10T09:07:21;1.67;;;1.57;;
3547;SDS011;1788;49.400;11.092;2023-05-10T09:09:47;1.70;;;1.60;;
3547;SDS011;1788;49.400;11.092;2023-05-10T09:12:14;1.90;;;1.80;;
3547;SDS011;1788;49.400;11.092;2023-05-10T09:14:42;2.30;;;2.10;;
3547;SDS011;1788;49.400;11.092;2023-05-10T09:17:08;3.33;;;1.93;;
3547;SDS011;1788;49.400;11.092;2023-05-10T09:19:34;3.00;;;2.40;;
3547;SDS011;1788;49.400;11.092;2023-05-10T09:22:02;2.63;;;2.43;;
3547;SDS011;1788;49.400;11.092;2023-05-10T09:24:29;4.93;;;2.30;;
3547;SDS011;1788;49.400;11.092;2023-05-10T09:26:56;2.93;;;2.67;;
3547;SDS011;1788;49.400;11.092;2023-05-10T09:29:22;3.43;;;2.53;;
3547;SDS011;1788;49.400;11.092;2023-05-10T09:31:50;2.47;;;2.27;;
3547;SDS011;1788;49.400;11.092;2023-05-10T09:34:18;3.13;;;2.50;;
3547;SDS011;1788;49.400;11.092;2023-05-10T09:39:12;4.37;;;2.93;;
3547;SDS011;1788;49.400;11.092;2023-05-10T09:41:39;3.23;;;2.27;;
3547;SDS011;1788;49.400;11.092;2023-05-10T09:44:05;2.57;;;2.37;;
3547;SDS011;1788;49.400;11.092;2023-05-10T09:46:34;3.87;;;2.13;;
3547;SDS011;1788;49.400;11.092;2023-05-10T09:48:59;2.47;;;2.30;;
3547;SDS011;1788;49.400;11.092;2023-05-10T09:51:26;3.13;;;2.50;;
3547;SDS011;1788;49.400;11.092;2023-05-10T09:58:47;2.17;;;2.00;;
3547;SDS011;1788;49.400;11.092;2023-05-10T10:01:14;3.80;;;2.50;;
3547;SDS011;1788;49.400;11.092;2023-05-10T10:03:41;3.00;;;2.33;;
3547;SDS011;1788;49.400;11.092;2023-05-10T10:06:08;2.37;;;2.17;;
3547;SDS011;1788;49.400;11.092;2023-05-10T10:08:35;3.27;;;2.30;;
3547;SDS011;1788;49.400;11.092;2023-05-10T10:11:03;3.77;;;2.40;;
3547;SDS011;1788;49.400;11.092;2023-05-10T10:13:29;4.30;;;2.83;;
3547;SDS011;1788;49.400;11.092;2023-05-10T10:15:57;2.50;;;1.97;;
3547;SDS011;1788;49.400;11.092;2023-05-10T10:18:23;2.03;;;1.83;;
3547;SDS011;1788;49.400;11.092;2023-05-10T10:20:51;3.33;;;2.00;;
3547;SDS011;1788;49.400;11.092;2023-05-10T10:23:17;2.30;;;2.10;;
3547;SDS011;1788;49.400;11.092;2023-05-10T10:25:44;3.00;;;2.37;;
3547;SDS011;1788;49.400;11.092;2023-05-10T10:28:16;2.20;;;2.00;;
3547;SDS011;1788;49.400;11.092;2023-05-10T10:33:10;3.20;;;2.30;;
3547;SDS011;1788;49.400;11.092;2023-05-10T10:35:33;2.70;;;1.80;;
3547;SDS011;1788;49.400;11.092;2023-05-10T10:37:59;1.73;;;1.63;;
3547;SDS011;1788;49.400;11.092;2023-05-10T10:40:27;1.40;;;1.30;;
3547;SDS011;1788;49.400;11.092;2023-05-10T10:42:53;1.40;;;1.20;;
3547;SDS011;1788;49.400;11.092;2023-05-10T10:45:19;2.47;;;1.53;;
3547;SDS011;1788;49.400;11.092;2023-05-10T10:47:46;1.60;;;1.50;;
3547;SDS011;1788;49.400;11.092;2023-05-10T10:50:13;3.53;;;2.27;;
3547;SDS011;1788;49.400;11.092;2023-05-10T10:52:40;3.40;;;1.90;;
3547;SDS011;1788;49.400;11.092;2023-05-10T10:55:10;2.37;;;1.73;;
3547;SDS011;1788;49.400;11.092;2023-05-10T11:04:54;1.10;;;1.10;;
3547;SDS011;1788;49.400;11.092;2023-05-10T11:07:21;1.40;;;1.30;;
3547;SDS011;1788;49.400;11.092;2023-05-10T11:09:48;1.40;;;1.30;;
3547;SDS011;1788;49.400;11.092;2023-05-10T11:12:14;1.20;;;1.10;;
3547;SDS011;1788;49.400;11.092;2023-05-10T11:14:41;1.53;;;1.40;;
3547;SDS011;1788;49.400;11.092;2023-05-10T11:19:34;1.33;;;1.17;;
3547;SDS011;1788;49.400;11.092;2023-05-10T11:24:28;1.20;;;1.13;;
3547;SDS011;1788;49.400;11.092;2023-05-10T11:26:55;1.40;;;1.30;;
3547;SDS011;1788;49.400;11.092;2023-05-10T11:29:21;1.20;;;1.10;;
3547;SDS011;1788;49.400;11.092;2023-05-10T11:31:48;4.73;;;2.00;;
3547;SDS011;1788;49.400;11.092;2023-05-10T11:36:42;1.60;;;1.50;;
3547;SDS011;1788;49.400;11.092;2023-05-10T11:39:09;1.83;;;1.73;;
3547;SDS011;1788;49.400;11.092;2023-05-10T11:41:36;1.73;;;1.67;;
3547;SDS011;1788;49.400;11.092;2023-05-10T11:44:03;2.03;;;1.67;;
3547;SDS011;1788;49.400;11.092;2023-05-10T11:46:29;1.60;;;1.50;;
3547;SDS011;1788;49.400;11.092;2023-05-10T11:48:58;1.37;;;1.27;;
3547;SDS011;1788;49.400;11.092;2023-05-10T11:51:23;2.63;;;2.43;;
3547;SDS011;1788;49.400;11.092;2023-05-10T11:53:52;3.23;;;1.77;;
3547;SDS011;1788;49.400;11.092;2023-05-10T11:56:17;2.00;;;1.90;;
3547;SDS011;1788;49.400;11.092;2023-05-10T11:58:44;2.90;;;1.73;;
3547;SDS011;1788;49.400;11.092;2023-05-10T12:01:11;1.67;;;1.67;;
3547;SDS011;1788;49.400;11.092;2023-05-10T12:03:38;1.87;;;1.70;;
3547;SDS011;1788;49.400;11.092;2023-05-10T12:06:05;1.67;;;1.57;;
3547;SDS011;1788;49.400;11.092;2023-05-10T12:08:31;1.77;;;1.67;;
3547;SDS011;1788;49.400;11.092;2023-05-10T12:13:25;3.47;;;2.20;;
3547;SDS011;1788;49.400;11.092;2023-05-10T12:15:52;1.80;;;1.70;;
3547;SDS011;1788;49.400;11.092;2023-05-10T12:18:22;2.33;;;2.13;;
3547;SDS011;1788;49.400;11.092;2023-05-10T12:20:46;2.23;;;2.00;;
3547;SDS011;1788;49.400;11.092;2023-05-10T12:23:13;2.00;;;1.80;;
3547;SDS011;1788;49.400;11.092;2023-05-10T12:25:39;1.63;;;1.53;;
3547;SDS011;1788;49.400;11.092;2023-05-10T12:28:07;1.60;;;1.50;;
3547;SDS011;1788;49.400;11.092;2023-05-10T12:30:33;1.20;;;1.10;;
3547;SDS011;1788;49.400;11.092;2023-05-10T12:35:29;1.73;;;1.33;;
3547;SDS011;1788;49.400;11.092;2023-05-10T12:37:54;1.23;;;1.13;;
3547;SDS011;1788;49.400;11.092;2023-05-10T12:40:20;1.87;;;1.33;;
3547;SDS011;1788;49.400;11.092;2023-05-10T12:42:48;1.17;;;1.17;;
3547;SDS011;1788;49.400;11.092;2023-05-10T12:45:14;0.73;;;0.63;;
3547;SDS011;1788;49.400;11.092;2023-05-10T12:47:41;1.00;;;0.90;;
3547;SDS011;1788;49.400;11.092;2023-05-10T12:50:08;1.03;;;1.00;;
3547;SDS011;1788;49.400;11.092;2023-05-10T12:52:34;2.20;;;1.53;;
3547;SDS011;1788;49.400;11.092;2023-05-10T12:55:01;1.40;;;1.30;;
3547;SDS011;1788;49.400;11.092;2023-05-10T12:57:28;1.60;;;1.50;;
3547;SDS011;1788;49.400;11.092;2023-05-10T12:59:54;1.27;;;1.17;;
3547;SDS011;1788;49.400;11.092;2023-05-10T13:02:21;1.53;;;1.43;;
3547;SDS011;1788;49.400;11.092;2023-05-10T13:04:48;1.83;;;1.47;;
3547;SDS011;1788;49.400;11.092;2023-05-10T13:07:15;1.70;;;1.63;;
3547;SDS011;1788;49.400;11.092;2023-05-10T13:09:42;1.40;;;1.30;;
3547;SDS011;1788;49.400;11.092;2023-05-10T13:12:09;1.57;;;1.47;;
3547;SDS011;1788;49.400;11.092;2023-05-10T13:14:37;1.47;;;1.37;;
3547;SDS011;1788;49.400;11.092;2023-05-10T13:17:04;1.60;;;1.50;;
3547;SDS011;1788;49.400;11.092;2023-05-10T13:19:31;2.07;;;1.40;;
3547;SDS011;1788;49.400;11.092;2023-05-10T13:21:57;1.60;;;1.50;;
3547;SDS011;1788;49.400;11.092;2023-05-10T13:24:24;1.73;;;1.63;;
3547;SDS011;1788;49.400;11.092;2023-05-10T13:26:50;3.43;;;2.30;;
3547;SDS011;1788;49.400;11.092;2023-05-10T13:29:18;3.67;;;2.53;;
3547;SDS011;1788;49.400;11.092;2023-05-10T13:31:45;2.27;;;2.07;;
3547;SDS011;1788;49.400;11.092;2023-05-10T13:34:12;1.93;;;1.83;;
3547;SDS011;1788;49.400;11.092;2023-05-10T13:36:38;2.57;;;2.37;;
3547;SDS011;1788;49.400;11.092;2023-05-10T13:39:06;2.30;;;1.70;;
3547;SDS011;1788;49.400;11.092;2023-05-10T13:41:32;1.40;;;1.30;;
3547;SDS011;1788;49.400;11.092;2023-05-10T13:43:59;2.10;;;1.50;;
3547;SDS011;1788;49.400;11.092;2023-05-10T13:46:26;1.30;;;1.20;;
3547;SDS011;1788;49.400;11.092;2023-05-10T13:48:53;1.60;;;1.50;;
3547;SDS011;1788;49.400;11.092;2023-05-10T13:51:20;1.57;;;1.50;;
3547;SDS011;1788;49.400;11.092;2023-05-10T13:53:47;1.70;;;1.60;;
3547;SDS011;1788;49.400;11.092;2023-05-10T13:56:14;2.23;;;2.03;;
3547;SDS011;1788;49.400;11.092;2023-05-10T13:58:40;3.30;;;3.17;;
3547;SDS011;1788;49.400;11.092;2023-05-10T14:01:07;1.70;;;1.60;;
3547;SDS011;1788;49.400;11.092;2023-05-10T14:03:34;2.10;;;1.80;;
3547;SDS011;1788;49.400;11.092;2023-05-10T14:06:00;1.90;;;1.70;;
3547;SDS011;1788;49.400;11.092;2023-05-10T14:08:27;2.20;;;1.67;;
3547;SDS011;1788;49.400;11.092;2023-05-10T14:10:53;1.90;;;1.63;;
3547;SDS011;1788;49.400;11.092;2023-05-10T14:13:20;1.40;;;1.27;;
3547;SDS011;1788;49.400;11.092;2023-05-10T14:15:47;1.03;;;0.93;;
3547;SDS011;1788;49.400;11.092;2023-05-10T14:18:13;1.40;;;1.30;;
3547;SDS011;1788;49.400;11.092;2023-05-10T14:20:40;1.33;;;1.27;;
3547;SDS011;1788;49.400;11.092;2023-05-10T14:23:06;1.40;;;1.30;;
3547;SDS011;1788;49.400;11.092;2023-05-10T14:25:33;2.67;;;1.47;;
3547;SDS011;1788;49.400;11.092;2023-05-10T14:28:00;2.77;;;1.20;;
3547;SDS011;1788;49.400;11.092;2023-05-10T14:30:27;1.47;;;1.40;;
3547;SDS011;1788;49.400;11.092;2023-05-10T14:32:54;1.63;;;1.53;;
3547;SDS011;1788;49.400;11.092;2023-05-10T14:35:20;1.80;;;1.70;;
3547;SDS011;1788;49.400;11.092;2023-05-10T14:37:48;1.37;;;1.27;;
3547;SDS011;1788;49.400;11.092;2023-05-10T14:40:14;1.50;;;1.40;;
3547;SDS011;1788;49.400;11.092;2023-05-10T14:42:41;1.47;;;1.37;;
3547;SDS011;1788;49.400;11.092;2023-05-10T14:45:08;2.50;;;1.60;;
3547;SDS011;1788;49.400;11.092;2023-05-10T14:47:34;1.83;;;1.73;;
3547;SDS011;1788;49.400;11.092;2023-05-10T14:50:02;1.40;;;1.30;;
3547;SDS011;1788;49.400;11.092;2023-05-10T14:52:28;1.40;;;1.30;;
3547;SDS011;1788;49.400;11.092;2023-05-10T14:54:55;1.67;;;1.47;;
3547;SDS011;1788;49.400;11.092;2023-05-10T14:57:21;1.50;;;1.40;;
3547;SDS011;1788;49.400;11.092;2023-05-10T14:59:48;2.00;;;1.90;;
3547;SDS011;1788;49.400;11.092;2023-05-10T15:02:15;1.40;;;1.30;;
3547;SDS011;1788;49.400;11.092;2023-05-10T15:04:41;1.40;;;1.30;;
3547;SDS011;1788;49.400;11.092;2023-05-10T15:07:08;2.30;;;1.83;;
3547;SDS011;1788;49.400;11.092;2023-05-10T15:09:35;3.03;;;1.97;;
3547;SDS011;1788;49.400;11.092;2023-05-10T15:12:01;1.63;;;1.47;;
3547;SDS011;1788;49.400;11.092;2023-05-10T15:14:28;1.70;;;1.60;;
3547;SDS011;1788;49.400;11.092;2023-05-10T15:16:55;7.17;;;2.63;;
3547;SDS011;1788;49.400;11.092;2023-05-10T15:19:21;4.20;;;1.50;;
3547;SDS011;1788;49.400;11.092;2023-05-10T15:21:49;2.00;;;1.60;;
3547;SDS011;1788;49.400;11.092;2023-05-10T15:24:17;5.57;;;1.63;;
3547;SDS011;1788;49.400;11.092;2023-05-10T15:26:44;1.43;;;1.13;;
3547;SDS011;1788;49.400;11.092;2023-05-10T15:29:10;1.20;;;1.10;;
3547;SDS011;1788;49.400;11.092;2023-05-10T15:31:37;1.77;;;1.27;;
3547;SDS011;1788;49.400;11.092;2023-05-10T15:34:03;1.20;;;1.10;;
3547;SDS011;1788;49.400;11.092;2023-05-10T15:36:31;2.27;;;0.97;;
3547;SDS011;1788;49.400;11.092;2023-05-10T15:38:57;1.20;;;1.10;;
3547;SDS011;1788;49.400;11.092;2023-05-10T15:41:24;0.70;;;0.60;;
3547;SDS011;1788;49.400;11.092;2023-05-10T15:43:51;1.37;;;1.27;;
3547;SDS011;1788;49.400;11.092;2023-05-10T15:46:17;0.90;;;0.80;;
3547;SDS011;1788;49.400;11.092;2023-05-10T15:48:44;1.70;;;0.83;;
3547;SDS011;1788;49.400;11.092;2023-05-10T15:51:10;1.20;;;1.10;;
3547;SDS011;1788;49.400;11.092;2023-05-10T15:53:37;1.10;;;1.00;;
3547;SDS011;1788;49.400;11.092;2023-05-10T15:56:04;1.47;;;1.13;;